메인 페이지
METAR-TAF:

METAR-TAF

공항 :

Kaunakakai, 하와이, 미국

위도: 21-09N, 경도: 157-06W, 고도: 138m

현재 날씨관측

예보는 37분 전, 13:54시(UTC)에 발표되었습니다.
동북동6kt
온도 22°C
습도 78%
기압 1017 hPa
시정: 16.1km
맑음

METAR: PHMK 211354Z AUTO 06006KT 10SM CLR 22/18 A3003 RMK AO2 SLP170 T02220183 TSNO $

시각: 04:31 (14:31 UTC)

예보

예보는 2 시간 56분 전, 11:35시(UTC)에 발표되었습니다.
예보 대상 시간: 21일 12시부터 22일 12시까지 (UTC)
동북동6kt
시정: 10km
고도 3000ft 상공 구름 조금
21일 1800시부터 (UTC)
북동12kt, 순간 최대 풍속 18kt
시정: 10km
고도 4000ft 상공 구름 보통
22일 0600시부터 (UTC)
동북동6kt
시정: 10km
고도 3000ft 상공 구름 조금

TAF: PHMK 211135Z 2112/2212 06006KT P6SM FEW030 FM211800 04012G18KT P6SM SCT040 FM220600 06006KT P6SM FEW030

4,000개 이상의 공항 관측 자료 및 예보 (METAR 및 TAF 보고).

지도상에서 검색 가능한 기상관측소가 노란 점과 빨간 점으로 표시되어 있습니다.

기상관측소 명을 보려면 표시 위로 마우스를 이동하세요.

날씨 관측과 예보를 보려면 클릭하세요.

지도 변경 : 확대하려면 엑스 표시가 있는 녹색 버튼, 축소하려면 빼기 표시가 있는 녹색 버튼, 다음 페이지의 지도를 보려면 녹색 화살표를 클릭하세요.


METAR-TAF: